Latest Weather Observations for Glen Innes Airport

IDN60801

Issued at 7:05 pm EST Friday 18 April 2014 (issued every 30 minutes, with the page automatically refreshed every 10 minutes)

About weather observations | Map of weather stations | Latest weather observations for NSW | Other Formats
Station Details ID: 056243 Name: GLEN INNES AIRPORT AWS Lat: -29.68 Lon: 151.69 Height: 1044.3 m
Data from the previous 72 hours. | See also: Recent months for locations in New South Wales
Date/Time
EST
Temp
°C
App
Temp
°C
Dew
Point
Rel
Hum
%
Delta-T
°C
Wind Press
QNH
hPa
Press
MSL
hPa
Rain
since 9 am
mm
Dir
 
Spd
km/h
Gust
km/h
Spd
kts
Gust
kts
18/07:00pm 9.1 6.0 1.5 59 3.3 WSW 7 9 4 5 1018.8 - 0.0
18/06:30pm 11.0 9.4 2.6 56 3.9 SW 0 4 0 2 1018.6 - 0.0
18/06:00pm 14.2 11.4 3.1 47 5.3 SW 7 9 4 5 1018.2 1014.8 0.0
18/05:30pm 14.0 10.4 2.9 47 5.3 SW 11 15 6 8 1017.9 - 0.0
18/05:00pm 16.8 12.4 2.8 39 6.8 WSW 15 19 8 10 1017.8 - 0.0
18/04:30pm 17.9 12.3 3.4 38 7.1 WSW 22 30 12 16 1017.5 - 0.0
18/04:00pm 18.3 13.1 3.8 38 7.2 SW 20 28 11 15 1017.3 - 0.0
18/03:30pm 18.7 13.6 4.1 38 7.3 WSW 20 28 11 15 1017.3 - 0.0
18/03:00pm 18.9 13.4 1.9 32 8.2 WSW 20 32 11 17 1017.2 1013.8 0.0
18/02:30pm 19.0 13.4 3.6 36 7.7 WSW 22 32 12 17 1017.3 - 0.0
18/02:00pm 18.8 12.4 3.0 35 7.8 W 26 35 14 19 1017.4 - 0.0
18/01:30pm 18.7 12.9 2.5 34 7.9 WSW 22 33 12 18 1017.5 - 0.0
18/01:00pm 18.5 12.8 2.8 35 7.7 WSW 22 32 12 17 1017.7 - 0.0
18/12:30pm 18.1 12.9 2.4 35 7.6 WSW 19 26 10 14 1018.1 - 0.0
18/12:00pm 18.1 13.4 5.3 43 6.5 W 19 26 10 14 1018.5 1015.1 0.0
18/11:30am 17.1 12.4 3.4 40 6.7 W 17 26 9 14 1019.0 - 0.0
18/11:00am 16.7 12.1 3.7 42 6.4 W 17 28 9 15 1019.5 - 0.0
18/10:30am 16.4 11.2 3.5 42 6.3 WSW 20 24 11 13 1019.7 - 0.0
18/10:00am 15.9 11.1 5.5 50 5.3 W 20 26 11 14 1020.0 - 0.0
18/09:30am 15.1 10.0 5.9 54 4.7 W 22 28 12 15 1020.2 - 0.0
18/09:00am 14.1 13.3 8.3 68 3.1 NNE 2 7 1 4 1020.3 1016.9 0.0
18/08:30am 11.6 9.9 8.5 81 1.6 E 7 9 4 5 1020.2 - 0.0
18/08:00am 8.9 6.7 8.0 94 0.5 E 9 11 5 6 1020.2 - 0.0
18/07:30am 6.2 - 6.6 - - E 7 9 4 5 1020.2 - 0.0
18/07:00am 3.3 - 4.3 - - E 9 9 5 5 1020.2 - 0.0
18/06:30am 0.9 - 1.7 - - E 9 11 5 6 1019.8 - 0.0
18/06:00am 0.0 - 0.7 - - E 11 11 6 6 1019.6 1016.2 0.0
18/05:30am 0.3 - 0.8 - - E 7 9 4 5 1019.5 - 0.0
18/05:00am 0.8 - 1.1 - - E 9 11 5 6 1019.5 - 0.0
18/04:30am 1.5 - 1.9 - - E 6 7 3 4 1019.4 - 0.0
18/04:00am 1.6 - 2.0 - - ESE 6 7 3 4 1019.4 - 0.0
18/03:30am 1.0 - 1.1 - - ESE 7 7 4 4 1019.4 - 0.0
18/03:00am 1.7 - 1.8 - - SE 6 7 3 4 1019.6 1016.2 0.0
18/02:30am 1.3 -1.8 1.2 99 0.0 ESE 7 9 4 5 1019.7 - 0.0
18/02:00am 1.9 -1.0 1.2 95 0.3 E 6 6 3 3 1019.9 - 0.0
18/01:30am 3.3 0.3 2.1 92 0.5 ENE 7 9 4 5 1020.3 - 0.0
18/01:00am 4.9 1.9 3.9 93 0.4 E 9 11 5 6 1020.3 - 0.0
18/12:30am 4.2 1.5 2.7 90 0.6 ENE 6 11 3 6 1020.3 - 0.0
18/12:00am 3.9 0.9 1.9 87 0.8 SE 7 11 4 6 1020.4 1017.0 0.0
 
Date/Time
EST
Temp
°C
App
Temp
°C
Dew
Point
Rel
Hum
%
Delta-T
°C
Wind Press
QNH
hPa
Press
MSL
hPa
Rain
since 9 am
mm
Dir
 
Spd
km/h
Gust
km/h
Spd
kts
Gust
kts
17/11:30pm 5.1 2.0 3.8 91 0.6 SSE 9 11 5 6 1020.8 - 0.0
17/11:00pm 5.1 1.7 4.1 93 0.5 ESE 11 13 6 7 1020.8 - 0.0
17/10:30pm 4.9 0.9 3.1 88 0.8 ESE 13 15 7 8 1021.0 - 0.0
17/10:00pm 5.2 1.9 2.6 83 1.1 E 9 13 5 7 1021.3 - 0.0
17/09:30pm 6.0 2.7 2.5 78 1.5 E 9 11 5 6 1020.9 - 0.0
17/09:00pm 8.2 6.9 4.0 75 1.9 CALM 0 2 0 1 1020.9 1017.6 0.0
17/08:30pm 8.1 6.0 3.8 74 2.0 E 4 9 2 5 1020.8 - 0.0
17/08:00pm 9.0 6.4 4.2 72 2.2 ESE 7 9 4 5 1020.6 - 0.0
17/07:30pm 11.3 8.2 3.8 60 3.5 S 9 13 5 7 1020.5 - 0.0
17/07:00pm 12.6 9.7 4.6 58 3.9 SSW 9 13 5 7 1020.0 - 0.0
17/06:30pm 12.9 10.3 4.1 55 4.2 SSW 7 11 4 6 1019.7 - 0.0
17/06:00pm 13.6 11.1 5.0 56 4.2 WSW 7 9 4 5 1019.6 1016.2 0.0
17/05:30pm 15.0 12.2 5.0 51 5.0 S 9 13 5 7 1019.4 - 0.0
17/05:00pm 16.7 13.5 5.0 46 5.9 SSW 11 15 6 8 1019.3 - 0.0
17/04:30pm 16.1 13.0 5.7 50 5.3 WSW 11 13 6 7 1019.0 - 0.0
17/04:00pm 16.5 13.3 5.2 47 5.7 W 11 15 6 8 1018.9 - 0.0
17/03:30pm 18.5 13.4 2.8 35 7.7 W 19 26 10 14 1018.7 - 0.0
17/03:00pm 18.7 14.3 4.8 40 7.1 WSW 17 26 9 14 1018.9 1015.6 0.0
17/02:30pm 18.2 13.1 2.9 36 7.5 SW 19 28 10 15 1018.8 - 0.0
17/02:00pm 17.0 12.3 3.3 40 6.7 SSW 17 24 9 13 1019.0 - 0.0
17/01:30pm 18.1 13.0 2.8 36 7.5 WNW 19 33 10 18 1019.2 - 0.0
17/01:00pm 18.7 14.0 5.2 41 6.9 WSW 19 26 10 14 1019.5 - 0.0
17/12:30pm 18.3 14.4 5.5 43 6.6 SSW 15 26 8 14 1019.8 - 0.0
17/12:00pm 17.6 13.5 4.2 41 6.7 W 15 20 8 11 1020.4 1017.0 0.0
17/11:30am 17.5 13.3 5.8 46 6.0 WSW 17 22 9 12 1020.7 - 0.0
17/11:00am 16.3 11.5 4.4 45 5.9 WSW 19 28 10 15 1021.2 - 0.0
17/10:30am 17.0 13.9 5.6 47 5.8 W 11 19 6 10 1021.2 - 0.0
17/10:00am 15.3 14.2 7.1 58 4.3 WSW 2 7 1 4 1021.3 - 0.0
17/09:30am 15.5 14.0 8.5 63 3.8 SSW 6 11 3 6 1021.5 - 0.0
17/09:00am 14.1 11.7 8.5 69 3.0 E 11 13 6 7 1021.5 1018.2 0.0
17/08:30am 12.2 9.9 8.9 80 1.7 E 11 13 6 7 1021.7 - 0.0
17/08:00am 9.9 7.9 8.8 93 0.6 ESE 9 11 5 6 1021.6 - 0.0
17/07:30am 7.6 4.9 7.5 99 0.0 ESE 11 13 6 7 1021.5 - 0.0
17/07:00am 5.5 - 5.6 - - E 9 11 5 6 1021.2 - 0.0
17/06:30am 3.5 - 3.6 - - E 11 13 6 7 1020.7 - 0.0
17/06:00am 3.2 - 3.3 - - E 11 13 6 7 1020.2 1016.8 0.0
17/05:30am 3.0 -0.6 3.0 100 0.0 ESE 11 13 6 7 1019.9 - 0.0
17/05:00am 4.0 - 4.1 - - ESE 13 15 7 8 1019.6 - 0.0
17/04:30am 4.1 - 4.2 - - ESE 15 15 8 8 1019.5 - 0.0
17/04:00am 3.7 0.6 3.7 100 0.0 ESE 9 11 5 6 1019.4 - 0.0
17/03:30am 4.4 1.1 4.4 100 0.0 ESE 11 13 6 7 1019.3 - 0.0
17/03:00am 4.5 2.1 4.5 100 0.0 ESE 6 11 3 6 1019.3 1015.9 0.0
17/02:30am 4.8 1.5 4.7 99 0.0 E 11 13 6 7 1019.3 - 0.0
17/02:00am 5.3 1.4 5.2 99 0.0 E 15 15 8 8 1019.5 - 0.0
17/01:30am 5.5 2.3 5.2 98 0.1 ESE 11 13 6 7 1019.7 - 0.0
17/01:00am 6.3 3.0 6.2 99 0.0 ESE 13 13 7 7 1019.8 - 0.0
17/12:30am 5.8 2.7 5.5 98 0.1 ESE 11 11 6 6 1020.2 - 0.0
17/12:00am 6.0 2.5 5.6 97 0.2 ESE 13 15 7 8 1020.3 1016.9 0.0
 
Date/Time
EST
Temp
°C
App
Temp
°C
Dew
Point
Rel
Hum
%
Delta-T
°C
Wind Press
QNH
hPa
Press
MSL
hPa
Rain
since 9 am
mm
Dir
 
Spd
km/h
Gust
km/h
Spd
kts
Gust
kts
16/11:30pm 6.5 3.9 6.1 97 0.2 ESE 9 11 5 6 1020.4 - 0.0
16/11:00pm 6.5 3.9 6.1 97 0.2 SE 9 13 5 7 1020.3 - 0.0
16/10:30pm 6.7 4.0 5.8 94 0.4 SE 9 15 5 8 1020.5 - 0.0
16/10:00pm 7.7 5.7 7.3 97 0.2 ESE 7 11 4 6 1020.6 - 0.0
16/09:30pm 6.4 3.2 5.0 91 0.7 ESE 11 13 6 7 1020.4 - 0.0
16/09:00pm 8.5 6.2 5.6 82 1.4 E 7 9 4 5 1020.2 1016.8 0.0
16/08:30pm 10.8 9.2 8.0 83 1.4 SE 6 7 3 4 1020.0 - 0.0
16/08:00pm 11.0 9.8 7.9 81 1.6 SE 4 6 2 3 1019.8 - 0.0
16/07:30pm 11.0 9.3 8.2 83 1.5 SE 7 9 4 5 1019.7 - 0.0
16/07:00pm 10.3 7.8 6.5 77 1.9 SE 9 11 5 6 1019.3 - 0.0
16/06:30pm 12.7 10.1 7.8 72 2.5 SSE 11 11 6 6 1019.0 - 0.0
16/06:00pm 13.4 10.9 8.0 70 2.8 SSE 11 13 6 7 1018.7 1015.3 0.0
16/05:30pm 14.9 12.7 7.9 63 3.7 SE 9 11 5 6 1018.3 - 0.0
16/05:00pm 16.3 13.3 7.8 57 4.5 SSE 13 20 7 11 1018.1 - 0.0
16/04:30pm 17.4 15.5 9.1 58 4.5 SSE 9 19 5 10 1017.8 - 0.0
16/04:00pm 17.0 15.4 8.7 58 4.5 ESE 7 11 4 6 1017.6 - 0.0
16/03:30pm 17.5 16.2 5.8 46 6.0 W 2 9 1 5 1017.6 - 0.0
16/03:00pm 17.4 15.7 6.0 47 5.9 SE 4 7 2 4 1017.6 1014.2 0.0
16/02:30pm 17.5 14.3 7.0 50 5.5 S 13 20 7 11 1017.7 - 0.0
16/02:00pm 18.3 16.0 7.4 49 5.8 S 9 15 5 8 1017.8 - 0.0
16/01:30pm 16.9 13.8 7.3 53 5.1 S 13 20 7 11 1018.1 - 0.0
16/01:00pm 17.7 14.7 7.7 52 5.3 SE 13 20 7 11 1018.1 - 0.0
16/12:30pm 16.5 12.4 8.5 59 4.3 SE 20 28 11 15 1018.5 - 0.0
16/12:00pm 17.1 14.7 8.8 58 4.5 S 11 19 6 10 1018.8 1015.5 0.0
16/11:30am 16.7 14.3 6.8 52 5.2 SSE 9 15 5 8 1019.3 - 0.0
16/11:00am 16.7 15.6 6.8 52 5.2 SSW 2 7 1 4 1019.6 - 0.0
16/10:30am 17.7 15.0 7.2 50 5.6 E 11 15 6 8 1019.7 - 0.0
16/10:00am 16.9 14.2 5.8 48 5.7 WSW 9 17 5 9 1019.9 - 0.0
16/09:30am 15.9 13.5 7.1 56 4.6 WNW 9 15 5 8 1020.0 - 0.0
16/09:00am 14.9 14.0 7.9 63 3.7 NNE 2 6 1 3 1019.9 1016.6 0.0
16/08:30am 12.6 11.0 8.7 77 2.1 E 7 9 4 5 1019.8 - 0.0
16/08:00am 10.2 8.0 9.4 95 0.4 ESE 11 13 6 7 1019.7 - 0.0
16/07:30am 7.9 5.3 7.9 100 0.0 E 11 11 6 6 1019.4 - 0.0
16/07:00am 5.4 - 6.0 - - E 11 13 6 7 1019.2 - 0.0
16/06:30am 2.1 - 2.5 - - E 11 13 6 7 1018.9 - 0.0
16/06:00am 2.3 - 2.6 - - ESE 7 11 4 6 1018.8 1015.5 0.0
16/05:30am 2.2 -1.1 2.2 100 0.0 E 9 11 5 6 1018.6 - 0.0
16/05:00am 2.7 -0.2 2.7 100 0.0 ESE 7 11 4 6 1018.6 - 0.0
16/04:30am 3.6 - 3.9 - - SE 7 9 4 5 1018.6 - 0.0
16/04:00am 2.1 -1.3 1.7 97 0.2 SE 9 11 5 6 1018.5 - 0.0
16/03:30am 3.6 0.1 3.5 99 0.0 E 11 13 6 7 1018.6 - 0.0
16/03:00am 3.8 0.7 3.7 99 0.0 E 9 11 5 6 1018.4 1015.0 0.0
16/02:30am 4.0 1.0 3.9 99 0.0 ESE 9 13 5 7 1018.7 - 0.0
16/02:00am 3.1 -0.2 2.4 95 0.3 SE 9 11 5 6 1018.6 - 0.0
16/01:30am 4.2 2.1 3.8 97 0.2 SE 4 7 2 4 1018.7 - 0.0
16/01:00am 4.9 2.3 4.3 96 0.3 ESE 7 9 4 5 1018.9 - 0.0
16/12:30am 6.5 5.5 5.5 93 0.5 CALM 0 0 0 0 1019.0 - 0.0
16/12:00am 7.1 5.0 5.9 92 0.6 SSE 6 7 3 4 1018.8 1015.5 0.0
 
Date/Time
EST
Temp
°C
App
Temp
°C
Dew
Point
Rel
Hum
%
Delta-T
°C
Wind Press
QNH
hPa
Press
MSL
hPa
Rain
since 9 am
mm
Dir
 
Spd
km/h
Gust
km/h
Spd
kts
Gust
kts
15/11:30pm 7.3 5.1 6.2 93 0.5 ESE 7 11 4 6 1018.9 - 0.0
15/11:00pm 7.1 4.5 5.9 92 0.6 E 9 11 5 6 1019.4 - 0.0
15/10:30pm 6.5 3.9 4.2 85 1.1 SE 7 9 4 5 1019.8 - 0.0
15/10:00pm 8.3 6.0 5.8 84 1.2 E 7 7 4 4 1020.0 - 0.0
15/09:30pm 8.6 5.5 5.4 80 1.5 SE 11 13 6 7 1019.9 - 0.0
15/09:00pm 9.8 6.3 5.6 75 2.0 ESE 13 17 7 9 1020.0 1016.7 0.0
15/08:30pm 10.6 6.5 6.2 74 2.2 SE 17 22 9 12 1019.7 - 0.0
15/08:00pm 8.6 5.4 5.0 78 1.7 SE 11 15 6 8 1019.8 - 0.0
15/07:30pm 9.3 5.8 5.3 76 1.9 ESE 13 17 7 9 1019.6 - 0.0

Other Formats:

Comma delimited format used in spreadsheet applications
http://www.bom.gov.au/fwo/IDN60801/IDN60801.94588.axf

JavaScript Object Notation format (JSON) in row-major order
http://www.bom.gov.au/fwo/IDN60801/IDN60801.94588.json